Pagrindinis puslapis
METAR-TAF:

METAR-TAF

Oro uostai :

Red Dog Mine, Aliaska, Jungtinės Amerikos Valstijos

platuma: 68-01-56N, ilguma: 162-53-57W, Aukštis: 295 m

Dabartinis oras

Ataskaita buvo paskelbta 31 minutes, ne 20:52 UTC
Ramus vėjas
Temperatūra 3°C
Drėgmė 70%
Slėgis 998 hPa
Matomumas: 24.1 km
Mažai debesys ne aukštis 4000 ft

METAR: PADG 212052Z 00000KT 15SM FEW040 03/M02 A2947

Laikas: 13:23 (21:23 UTC)


TAF: trūkstamas

Orai ataskaitas ir orų prognozės (METAR, TAF).

turimą stotys yra geltonos ir raudonos taškus žemėlapyje.

Perkelti pele per norėdami pamatyti stoties vardą.

Tada spustelėkite, norėdami matyti oro stebėjimo ir prognozės.

Norėdami pakeisti žemėlapį: spustelėkite ant žalios mygtukų su juodo kryžiaus žemyn,; žalią mygtuką su brūkšneliu, jei norite nutolinti; arba žalių rodyklių gretimoms žemėlapius.


METAR-TAF: